createdAt,value
2017-12-24T00:02:01.979Z,2.99
2017-12-24T00:04:28.637Z,3.00
2017-12-24T00:06:54.921Z,3.05
2017-12-24T00:09:21.120Z,3.15
2017-12-24T00:11:47.324Z,3.22
2017-12-24T00:14:13.535Z,3.33
2017-12-24T00:16:39.769Z,3.26
2017-12-24T00:19:06.029Z,3.31
2017-12-24T00:21:32.271Z,3.28
2017-12-24T00:23:58.434Z,3.26
2017-12-24T00:26:24.609Z,3.28
2017-12-24T00:28:50.822Z,3.31
2017-12-24T00:31:17.017Z,3.28
2017-12-24T00:33:43.260Z,3.23
2017-12-24T00:36:09.444Z,3.22
2017-12-24T00:38:35.709Z,3.30
2017-12-24T00:41:01.925Z,3.31
2017-12-24T00:43:28.144Z,3.28
2017-12-24T00:45:54.380Z,3.25
2017-12-24T00:48:20.581Z,3.27
2017-12-24T00:50:46.825Z,3.23
2017-12-24T00:53:13.045Z,3.18
2017-12-24T00:55:39.216Z,3.16
2017-12-24T00:58:05.404Z,3.19
2017-12-24T01:00:31.623Z,3.15
2017-12-24T01:02:57.857Z,3.11
2017-12-24T01:05:24.097Z,3.09
2017-12-24T01:07:50.298Z,3.05
2017-12-24T01:10:16.509Z,3.04
2017-12-24T01:12:42.786Z,3.03
2017-12-24T01:15:08.990Z,3.00
2017-12-24T01:17:35.197Z,2.95
2017-12-24T01:20:01.391Z,2.91
2017-12-24T01:22:27.549Z,2.85
2017-12-24T01:24:53.751Z,2.76
2017-12-24T01:27:20.024Z,2.65
2017-12-24T01:29:46.238Z,2.47
2017-12-24T01:32:12.397Z,2.61
2017-12-24T01:34:38.615Z,2.64
2017-12-24T01:37:04.848Z,2.59
2017-12-24T01:39:31.084Z,2.40
2017-12-24T01:41:57.312Z,2.42
2017-12-24T01:44:23.540Z,2.40
2017-12-24T01:46:49.721Z,2.42
2017-12-24T01:49:15.926Z,2.39
2017-12-24T01:51:42.089Z,1.97
2017-12-24T01:54:08.255Z,1.83
2017-12-24T01:56:34.478Z,1.86
2017-12-24T01:59:00.710Z,2.08
2017-12-24T02:01:26.908Z,2.07
2017-12-24T02:03:53.117Z,1.95
2017-12-24T02:06:19.297Z,1.93
2017-12-24T02:08:45.540Z,2.06
2017-12-24T02:11:11.769Z,2.03
2017-12-24T02:13:37.961Z,1.91
2017-12-24T02:16:04.148Z,1.89
2017-12-24T02:18:30.353Z,1.96
2017-12-24T02:20:56.560Z,2.11
2017-12-24T02:23:22.750Z,2.07
2017-12-24T02:25:48.956Z,2.05
2017-12-24T02:28:15.127Z,1.78
2017-12-24T02:30:41.321Z,1.82
2017-12-24T02:33:07.500Z,1.94
2017-12-24T02:35:33.672Z,1.92
2017-12-24T02:37:59.952Z,1.91
2017-12-24T02:40:26.210Z,2.06
2017-12-24T02:42:52.421Z,2.01
2017-12-24T02:45:18.632Z,2.09
2017-12-24T02:47:44.856Z,2.07
2017-12-24T02:50:11.030Z,2.05
2017-12-24T02:52:37.198Z,2.14
2017-12-24T02:55:03.493Z,2.14
2017-12-24T02:57:29.669Z,2.11
2017-12-24T02:59:55.849Z,1.99
2017-12-24T03:02:22.080Z,2.09
2017-12-24T03:04:48.254Z,2.06
2017-12-24T03:07:14.489Z,2.00
2017-12-24T03:09:40.760Z,2.09
2017-12-24T03:12:07.016Z,2.03
2017-12-24T03:14:33.188Z,2.04
2017-12-24T03:16:59.495Z,2.11
2017-12-24T03:19:25.723Z,1.93
2017-12-24T03:21:51.933Z,2.21
2017-12-24T03:24:18.154Z,2.08
2017-12-24T03:26:44.349Z,2.00
2017-12-24T03:29:10.573Z,2.05
2017-12-24T03:31:36.785Z,1.97
2017-12-24T03:34:02.939Z,2.00
2017-12-24T03:36:29.196Z,1.85
2017-12-24T03:38:55.483Z,1.82
2017-12-24T03:41:21.654Z,1.72
2017-12-24T03:43:47.909Z,1.82
2017-12-24T03:46:14.111Z,1.81
2017-12-24T03:48:40.336Z,1.78
2017-12-24T03:51:06.508Z,1.69
2017-12-24T03:53:32.724Z,1.87
2017-12-24T03:55:58.901Z,1.69
2017-12-24T03:58:25.079Z,1.69
2017-12-24T04:00:51.310Z,1.77
2017-12-24T04:03:17.535Z,1.90
2017-12-24T04:05:43.730Z,1.91
2017-12-24T04:08:09.940Z,1.80
2017-12-24T04:10:36.088Z,1.68
2017-12-24T04:13:02.257Z,1.59
2017-12-24T04:15:28.465Z,1.65
2017-12-24T04:17:54.656Z,1.49
2017-12-24T04:20:20.840Z,1.33
2017-12-24T04:22:47.025Z,1.48
2017-12-24T04:25:13.180Z,1.33
2017-12-24T04:27:39.409Z,1.45
2017-12-24T04:30:05.617Z,1.50
2017-12-24T04:32:31.816Z,1.31
2017-12-24T04:34:58.044Z,1.34
2017-12-24T04:37:24.272Z,1.38
2017-12-24T04:39:50.456Z,1.36
2017-12-24T04:42:16.620Z,1.31
2017-12-24T04:44:42.831Z,1.52
2017-12-24T04:47:09.057Z,1.59
2017-12-24T04:49:35.265Z,1.55
2017-12-24T04:52:01.481Z,1.53
2017-12-24T04:54:27.624Z,1.56
2017-12-24T04:56:53.810Z,1.63
2017-12-24T04:59:20.020Z,1.67
2017-12-24T05:01:46.197Z,1.52
2017-12-24T05:04:12.406Z,1.36
2017-12-24T05:06:38.936Z,1.53
2017-12-24T05:09:05.084Z,1.45
2017-12-24T05:11:31.265Z,1.57
2017-12-24T05:13:57.484Z,1.66
2017-12-24T05:16:23.789Z,1.63
2017-12-24T05:18:49.951Z,1.65
2017-12-24T05:21:16.157Z,1.70
2017-12-24T05:23:42.392Z,1.36
2017-12-24T05:26:08.580Z,1.64
2017-12-24T05:28:34.778Z,1.64
2017-12-24T05:31:00.939Z,1.85
2017-12-24T05:33:27.205Z,1.79
2017-12-24T05:35:53.464Z,1.72
2017-12-24T05:38:19.660Z,1.69
2017-12-24T05:40:45.857Z,1.82
2017-12-24T05:43:12.077Z,1.85
2017-12-24T05:45:38.248Z,2.00
2017-12-24T05:48:04.448Z,2.06
2017-12-24T05:50:30.722Z,1.97
2017-12-24T05:52:56.890Z,2.00
2017-12-24T05:55:23.101Z,2.18
2017-12-24T05:57:49.345Z,2.17
2017-12-24T06:00:15.560Z,2.23
2017-12-24T06:02:41.773Z,2.33
2017-12-24T06:05:08.025Z,2.11
2017-12-24T06:07:34.206Z,2.10
2017-12-24T06:10:00.443Z,2.22
2017-12-24T06:12:26.685Z,2.14
2017-12-24T06:14:52.892Z,2.35
2017-12-24T06:17:19.241Z,2.33
2017-12-24T06:19:45.452Z,2.43
2017-12-24T06:22:11.602Z,2.36
2017-12-24T06:24:37.761Z,2.29
2017-12-24T06:27:04.312Z,2.28
2017-12-24T06:29:30.509Z,2.32
2017-12-24T06:31:56.656Z,2.32
2017-12-24T06:34:22.977Z,2.38
2017-12-24T06:36:49.130Z,2.32
2017-12-24T06:39:15.328Z,2.33
2017-12-24T06:41:41.584Z,2.28
2017-12-24T06:44:07.809Z,2.39
2017-12-24T06:46:33.968Z,2.48
2017-12-24T06:49:00.204Z,2.55
2017-12-24T06:51:26.405Z,2.64
2017-12-24T06:53:52.641Z,2.70
2017-12-24T06:56:18.860Z,2.75
2017-12-24T06:58:45.065Z,2.75
2017-12-24T07:01:11.213Z,2.74
2017-12-24T07:03:37.482Z,2.76
2017-12-24T07:06:03.700Z,2.84
2017-12-24T07:08:29.939Z,2.90
2017-12-24T07:10:56.324Z,2.88
2017-12-24T07:13:22.577Z,2.84
2017-12-24T07:15:48.736Z,2.85
2017-12-24T07:18:14.933Z,2.87
2017-12-24T07:20:41.136Z,2.90
2017-12-24T07:23:07.365Z,2.92
2017-12-24T07:25:33.593Z,3.02
2017-12-24T07:27:59.776Z,3.08
2017-12-24T07:30:26.010Z,3.09
2017-12-24T07:32:52.336Z,3.19
2017-12-24T07:35:18.537Z,3.18
2017-12-24T07:37:44.728Z,3.23
2017-12-24T07:40:14.902Z,3.23
2017-12-24T07:42:41.139Z,3.22
2017-12-24T07:45:07.363Z,3.26
2017-12-24T07:47:33.801Z,3.31
2017-12-24T07:50:02.311Z,3.40
2017-12-24T07:52:28.544Z,3.40
2017-12-24T07:54:54.835Z,3.42
2017-12-24T07:57:21.073Z,3.35
2017-12-24T07:59:47.252Z,3.42
2017-12-24T08:02:13.451Z,3.53
2017-12-24T08:04:39.657Z,3.58
2017-12-24T08:07:05.832Z,3.65
2017-12-24T08:09:32.047Z,3.73
2017-12-24T08:11:58.201Z,3.75
2017-12-24T08:14:24.348Z,3.80
2017-12-24T08:16:50.562Z,3.87
2017-12-24T08:19:16.892Z,4.00
2017-12-24T08:21:43.072Z,4.08
2017-12-24T08:24:09.291Z,4.17
2017-12-24T08:26:35.476Z,4.22
2017-12-24T08:29:01.645Z,4.27
2017-12-24T08:31:27.836Z,4.36
2017-12-24T08:33:54.011Z,4.38
2017-12-24T08:36:20.207Z,4.38
2017-12-24T08:38:46.411Z,4.35
2017-12-24T08:41:12.585Z,4.34
2017-12-24T08:43:38.737Z,4.40
2017-12-24T08:46:04.953Z,4.38
2017-12-24T08:48:31.124Z,4.44
2017-12-24T08:50:57.325Z,4.44
2017-12-24T08:53:23.584Z,4.49
2017-12-24T08:55:49.760Z,4.50
2017-12-24T08:58:16.078Z,4.54
2017-12-24T09:00:42.336Z,4.60
2017-12-24T09:03:08.870Z,4.68
2017-12-24T09:05:35.170Z,4.69
2017-12-24T09:08:01.477Z,4.69
2017-12-24T09:10:28.076Z,4.71
2017-12-24T09:12:55.094Z,4.77
2017-12-24T09:15:21.382Z,4.79
2017-12-24T09:17:47.576Z,4.86
2017-12-24T09:20:13.748Z,4.87
2017-12-24T09:22:39.928Z,4.91
2017-12-24T09:25:06.088Z,4.90
2017-12-24T09:27:32.288Z,4.92
2017-12-24T09:29:58.545Z,4.98
2017-12-24T09:32:24.740Z,5.05
2017-12-24T09:34:50.926Z,5.23
2017-12-24T09:37:17.156Z,5.39
2017-12-24T09:39:43.392Z,5.47
2017-12-24T09:42:09.576Z,5.43
2017-12-24T09:44:35.801Z,5.52
2017-12-24T09:47:01.979Z,5.56
2017-12-24T09:49:28.219Z,5.63
2017-12-24T09:51:54.488Z,5.68
2017-12-24T09:54:22.882Z,5.78
2017-12-24T09:56:49.586Z,5.87
2017-12-24T09:59:15.849Z,5.85
2017-12-24T10:01:42.009Z,5.82
2017-12-24T10:04:08.188Z,5.97
2017-12-24T10:06:34.476Z,6.14
2017-12-24T10:09:00.672Z,6.21
2017-12-24T10:11:26.860Z,6.27
2017-12-24T10:13:53.117Z,6.18
2017-12-24T10:16:19.311Z,6.28
2017-12-24T10:18:45.517Z,6.19
2017-12-24T10:21:11.793Z,6.25
2017-12-24T10:23:38.805Z,6.15
2017-12-24T10:26:05.202Z,6.11
2017-12-24T10:28:31.468Z,6.21
2017-12-24T10:30:57.856Z,6.43
2017-12-24T10:33:24.153Z,6.61
2017-12-24T10:35:50.370Z,6.67
2017-12-24T10:38:16.556Z,6.85
2017-12-24T10:40:42.773Z,7.00
2017-12-24T10:43:08.995Z,7.10
2017-12-24T10:45:35.200Z,6.94
2017-12-24T10:48:01.413Z,6.93
2017-12-24T10:50:27.677Z,7.03
2017-12-24T10:52:54.792Z,7.16
2017-12-24T10:55:20.974Z,7.23
2017-12-24T10:57:47.216Z,7.17
2017-12-24T11:00:14.377Z,7.30
2017-12-24T11:02:41.000Z,7.27
2017-12-24T11:05:07.443Z,7.40
2017-12-24T11:07:33.635Z,7.50
2017-12-24T11:09:59.884Z,7.40
2017-12-24T11:12:26.117Z,7.49
2017-12-24T11:14:52.279Z,7.65
2017-12-24T11:17:18.501Z,7.67
2017-12-24T11:19:44.729Z,7.66
2017-12-24T11:22:10.941Z,7.40
2017-12-24T11:24:37.109Z,7.56
2017-12-24T11:27:03.300Z,7.60
2017-12-24T11:29:29.473Z,7.54
2017-12-24T11:31:55.724Z,7.45
2017-12-24T11:34:21.929Z,7.45
2017-12-24T11:36:48.141Z,7.63
2017-12-24T11:39:14.453Z,7.85
2017-12-24T11:41:40.656Z,7.61
2017-12-24T11:44:06.869Z,7.66
2017-12-24T11:46:33.187Z,7.43
2017-12-24T11:48:59.377Z,7.60
2017-12-24T11:51:25.564Z,7.65
2017-12-24T11:53:51.829Z,7.66
2017-12-24T11:56:18.184Z,7.75
2017-12-24T11:58:44.336Z,7.79
2017-12-24T12:01:10.484Z,7.88
2017-12-24T12:03:36.706Z,7.98
2017-12-24T12:06:02.873Z,8.07
2017-12-24T12:08:29.050Z,8.09
2017-12-24T12:10:55.248Z,7.98
2017-12-24T12:13:21.437Z,7.79
2017-12-24T12:15:47.597Z,7.50
2017-12-24T12:18:13.835Z,7.55
2017-12-24T12:20:40.016Z,7.73
2017-12-24T12:23:06.212Z,7.79
2017-12-24T12:25:32.418Z,7.78
2017-12-24T12:27:58.597Z,7.86
2017-12-24T12:30:24.946Z,7.94
2017-12-24T12:32:51.277Z,8.02
2017-12-24T12:35:17.661Z,8.05
2017-12-24T12:37:44.074Z,8.16
2017-12-24T12:40:10.570Z,8.16
2017-12-24T12:42:36.930Z,8.06
2017-12-24T12:45:03.449Z,7.98
2017-12-24T12:47:29.881Z,8.05
2017-12-24T12:49:56.249Z,8.16
2017-12-24T12:52:22.614Z,8.05
2017-12-24T12:54:49.119Z,8.05
2017-12-24T12:57:15.542Z,8.17
2017-12-24T12:59:41.940Z,8.23
2017-12-24T13:02:08.353Z,8.37
2017-12-24T13:04:34.809Z,8.30
2017-12-24T13:07:01.203Z,8.34
2017-12-24T13:09:27.873Z,8.31
2017-12-24T13:11:54.389Z,8.42
2017-12-24T13:14:20.846Z,8.34
2017-12-24T13:16:47.281Z,8.36
2017-12-24T13:19:13.632Z,8.39
2017-12-24T13:21:39.989Z,7.74
2017-12-24T13:24:06.466Z,7.79
2017-12-24T13:26:32.870Z,7.86
2017-12-24T13:28:59.253Z,8.00
2017-12-24T13:31:25.694Z,8.12
2017-12-24T13:33:52.106Z,8.22
2017-12-24T13:36:18.486Z,8.22
2017-12-24T13:38:44.893Z,8.30
2017-12-24T13:41:11.442Z,8.19
2017-12-24T13:43:37.827Z,8.17
2017-12-24T13:46:04.264Z,8.21
2017-12-24T13:48:30.671Z,8.06
2017-12-24T13:50:57.041Z,8.06
2017-12-24T13:53:23.445Z,8.04
2017-12-24T13:55:49.791Z,8.00
2017-12-24T13:58:16.157Z,8.02
2017-12-24T14:00:42.582Z,7.99
2017-12-24T14:03:08.986Z,7.92
2017-12-24T14:05:35.387Z,7.94
2017-12-24T14:08:01.845Z,7.93
2017-12-24T14:10:28.258Z,7.94
2017-12-24T14:12:54.633Z,7.98
2017-12-24T14:15:21.066Z,7.83
2017-12-24T14:17:47.434Z,7.79
2017-12-24T14:20:13.821Z,7.85
2017-12-24T14:22:40.233Z,7.85
2017-12-24T14:25:06.637Z,7.85
2017-12-24T14:27:33.021Z,7.74
2017-12-24T14:29:59.376Z,7.71
2017-12-24T14:32:25.765Z,7.69
2017-12-24T14:34:52.183Z,7.73
2017-12-24T14:37:18.610Z,7.72
2017-12-24T14:39:45.017Z,7.74
2017-12-24T14:42:11.448Z,7.72
2017-12-24T14:44:37.861Z,7.72
2017-12-24T14:47:04.311Z,7.77
2017-12-24T14:49:30.721Z,7.76
2017-12-24T14:51:57.185Z,7.81
2017-12-24T14:54:23.582Z,7.70
2017-12-24T14:56:49.989Z,7.72
2017-12-24T14:59:16.406Z,7.68
2017-12-24T15:01:42.781Z,7.60
2017-12-24T15:04:09.170Z,7.57
2017-12-24T15:06:35.633Z,7.54
2017-12-24T15:09:02.150Z,7.55
2017-12-24T15:11:28.612Z,7.87
2017-12-24T15:13:55.097Z,8.09
2017-12-24T15:16:21.511Z,8.34
2017-12-24T15:18:47.863Z,8.52
2017-12-24T15:21:14.320Z,8.53
2017-12-24T15:23:40.664Z,8.52
2017-12-24T15:26:07.058Z,8.52
2017-12-24T15:28:33.426Z,8.63
2017-12-24T15:30:59.799Z,8.70
2017-12-24T15:33:26.206Z,8.69
2017-12-24T15:35:52.634Z,8.73
2017-12-24T15:38:18.993Z,8.86
2017-12-24T15:40:45.442Z,8.82
2017-12-24T15:43:11.965Z,8.81
2017-12-24T15:45:38.323Z,8.84
2017-12-24T15:48:04.716Z,8.89
2017-12-24T15:50:31.186Z,8.81
2017-12-24T15:52:57.617Z,8.97
2017-12-24T15:55:24.029Z,9.01
2017-12-24T15:57:50.403Z,8.92
2017-12-24T16:00:16.858Z,8.95
2017-12-24T16:02:43.262Z,9.04
2017-12-24T16:05:09.661Z,8.97
2017-12-24T16:07:36.065Z,9.04
2017-12-24T16:10:02.410Z,8.83
2017-12-24T16:12:28.946Z,8.95
2017-12-24T16:14:55.325Z,8.98
2017-12-24T16:17:21.689Z,9.00
2017-12-24T16:19:48.057Z,9.05
2017-12-24T16:22:14.458Z,9.06
2017-12-24T16:24:40.889Z,9.07
2017-12-24T16:27:07.330Z,9.09
2017-12-24T16:29:34.563Z,9.07
2017-12-24T16:32:00.912Z,9.01
2017-12-24T16:34:27.358Z,9.06
2017-12-24T16:36:53.907Z,9.13
2017-12-24T16:39:20.243Z,9.06
2017-12-24T16:41:46.661Z,8.99
2017-12-24T16:44:13.008Z,8.97
2017-12-24T16:46:39.441Z,8.94
2017-12-24T16:49:05.863Z,8.99
2017-12-24T16:51:32.246Z,9.07
2017-12-24T16:53:58.593Z,8.98
2017-12-24T16:56:25.039Z,9.02
2017-12-24T16:58:51.417Z,8.97
2017-12-24T17:01:17.786Z,9.02
2017-12-24T17:03:44.165Z,8.95
2017-12-24T17:06:10.529Z,9.01
2017-12-24T17:08:36.908Z,8.95
2017-12-24T17:11:03.317Z,8.89
2017-12-24T17:13:29.767Z,8.96
2017-12-24T17:15:56.098Z,8.89
2017-12-24T17:18:22.772Z,8.97
2017-12-24T17:20:49.117Z,8.94
2017-12-24T17:23:15.494Z,8.94
2017-12-24T17:25:41.949Z,8.94
2017-12-24T17:28:08.309Z,8.85
2017-12-24T17:30:34.635Z,8.83
2017-12-24T17:33:01.102Z,8.83
2017-12-24T17:35:28.088Z,8.77
2017-12-24T17:37:54.486Z,8.71
2017-12-24T17:40:20.894Z,8.65
2017-12-24T17:42:47.369Z,8.73
2017-12-24T17:45:13.765Z,8.69
2017-12-24T17:47:40.164Z,8.69
2017-12-24T17:50:06.553Z,8.71
2017-12-24T17:52:32.901Z,8.73
2017-12-24T17:54:59.442Z,8.69
2017-12-24T17:57:25.793Z,8.65
2017-12-24T17:59:52.161Z,8.60
2017-12-24T18:02:18.558Z,8.63
2017-12-24T18:04:44.966Z,8.71
2017-12-24T18:07:11.329Z,8.75
2017-12-24T18:09:37.709Z,8.78
2017-12-24T18:12:04.107Z,8.80
2017-12-24T18:14:30.459Z,8.70
2017-12-24T18:16:57.139Z,8.73
2017-12-24T18:19:23.676Z,8.85
2017-12-24T18:21:50.101Z,8.83
2017-12-24T18:24:17.430Z,8.86
2017-12-24T18:26:43.829Z,8.80
2017-12-24T18:29:10.173Z,8.95
2017-12-24T18:31:36.586Z,8.95
2017-12-24T18:34:02.950Z,8.93
2017-12-24T18:36:29.356Z,8.75
2017-12-24T18:38:55.758Z,8.64
2017-12-24T18:41:22.106Z,8.63
2017-12-24T18:43:48.494Z,8.66
2017-12-24T18:46:14.914Z,8.75
2017-12-24T18:48:41.277Z,8.65
2017-12-24T18:51:07.698Z,8.71
2017-12-24T18:53:34.147Z,8.64
2017-12-24T18:56:00.528Z,8.64
2017-12-24T18:58:26.881Z,8.61
2017-12-24T19:00:53.285Z,8.48
2017-12-24T19:03:19.642Z,8.48
2017-12-24T19:05:46.035Z,8.42
2017-12-24T19:08:12.606Z,8.42
2017-12-24T19:10:38.974Z,8.47
2017-12-24T19:13:05.349Z,8.36
2017-12-24T19:15:31.750Z,8.40
2017-12-24T19:17:58.116Z,8.32
2017-12-24T19:20:24.478Z,8.43
2017-12-24T19:22:50.941Z,8.39
2017-12-24T19:25:17.309Z,8.26
2017-12-24T19:27:43.684Z,8.15
2017-12-24T19:30:10.138Z,8.21
2017-12-24T19:32:36.556Z,8.24
2017-12-24T19:35:02.966Z,8.21
2017-12-24T19:37:29.409Z,8.22
2017-12-24T19:39:55.779Z,8.23
2017-12-24T19:42:23.041Z,8.28
2017-12-24T19:44:49.470Z,8.19
2017-12-24T19:47:15.844Z,8.17
2017-12-24T19:49:42.233Z,8.19
2017-12-24T19:52:08.617Z,8.12
2017-12-24T19:54:35.034Z,8.13
2017-12-24T19:57:01.367Z,8.09
2017-12-24T19:59:27.826Z,8.05
2017-12-24T20:01:54.174Z,8.01
2017-12-24T20:04:20.599Z,7.99
2017-12-24T20:06:46.983Z,7.90
2017-12-24T20:09:13.346Z,7.95
2017-12-24T20:11:39.728Z,7.99
2017-12-24T20:14:06.249Z,8.00
2017-12-24T20:16:32.665Z,8.07
2017-12-24T20:18:59.031Z,7.93
2017-12-24T20:21:25.433Z,7.99
2017-12-24T20:23:51.816Z,8.07
2017-12-24T20:26:18.183Z,7.98
2017-12-24T20:28:44.604Z,7.94
2017-12-24T20:31:10.952Z,7.96
2017-12-24T20:33:37.646Z,7.93
2017-12-24T20:36:04.089Z,7.92
2017-12-24T20:38:30.490Z,7.91
2017-12-24T20:40:56.841Z,7.86
2017-12-24T20:43:23.248Z,7.80
2017-12-24T20:45:49.606Z,7.68
2017-12-24T20:48:16.018Z,7.64
2017-12-24T20:50:42.486Z,7.69
2017-12-24T20:53:08.805Z,7.71
2017-12-24T20:55:35.157Z,7.72
2017-12-24T20:58:01.626Z,7.65
2017-12-24T21:00:28.022Z,7.60
2017-12-24T21:02:54.415Z,7.50
2017-12-24T21:05:20.805Z,7.55
2017-12-24T21:07:47.247Z,7.56
2017-12-24T21:10:13.667Z,7.67
2017-12-24T21:12:40.168Z,7.68
2017-12-24T21:15:06.621Z,7.63
2017-12-24T21:17:33.009Z,7.61
2017-12-24T21:19:59.514Z,7.62
2017-12-24T21:22:26.162Z,7.68
2017-12-24T21:24:52.540Z,7.67
2017-12-24T21:27:19.019Z,7.65
2017-12-24T21:29:45.357Z,7.62
2017-12-24T21:32:11.777Z,7.58
2017-12-24T21:34:38.188Z,7.57
2017-12-24T21:37:04.621Z,7.55
2017-12-24T21:39:30.979Z,7.60
2017-12-24T21:41:57.406Z,7.65
2017-12-24T21:44:23.819Z,7.61
2017-12-24T21:46:50.186Z,7.63
2017-12-24T21:49:16.621Z,7.65
2017-12-24T21:51:43.005Z,7.62
2017-12-24T21:54:09.357Z,7.58
2017-12-24T21:56:35.816Z,7.57
2017-12-24T21:59:02.206Z,7.53
2017-12-24T22:01:28.576Z,7.48
2017-12-24T22:03:54.995Z,7.44
2017-12-24T22:06:21.387Z,7.42
2017-12-24T22:08:47.781Z,7.38
2017-12-24T22:11:14.170Z,7.27
2017-12-24T22:13:40.545Z,7.16
2017-12-24T22:16:06.897Z,7.14
2017-12-24T22:18:33.280Z,7.09
2017-12-24T22:20:59.741Z,7.05
2017-12-24T22:23:26.094Z,7.09
2017-12-24T22:25:52.505Z,7.06
2017-12-24T22:28:18.909Z,6.90
2017-12-24T22:30:45.274Z,6.88
2017-12-24T22:33:11.764Z,6.87
2017-12-24T22:35:38.090Z,6.85
2017-12-24T22:38:04.449Z,6.86
2017-12-24T22:40:30.849Z,6.83
2017-12-24T22:42:57.253Z,6.66
2017-12-24T22:45:23.628Z,6.66
2017-12-24T22:47:50.017Z,6.64
2017-12-24T22:50:16.372Z,6.63
2017-12-24T22:52:42.757Z,6.59
2017-12-24T22:55:09.177Z,6.45
2017-12-24T22:57:35.620Z,6.43
2017-12-24T23:00:01.977Z,6.37
2017-12-24T23:02:28.472Z,6.37
2017-12-24T23:04:54.893Z,6.35
2017-12-24T23:07:21.313Z,6.29
2017-12-24T23:09:47.708Z,6.12
2017-12-24T23:12:14.117Z,6.23
2017-12-24T23:14:40.533Z,6.24
2017-12-24T23:17:06.992Z,6.31
2017-12-24T23:19:33.344Z,6.24
2017-12-24T23:21:59.724Z,6.29
2017-12-24T23:24:26.176Z,6.29
2017-12-24T23:26:52.588Z,6.16
2017-12-24T23:29:19.014Z,6.16
2017-12-24T23:31:45.404Z,6.13
2017-12-24T23:34:11.790Z,6.19
2017-12-24T23:36:38.198Z,6.18
2017-12-24T23:39:04.637Z,6.16
2017-12-24T23:41:31.064Z,6.02
2017-12-24T23:43:57.453Z,6.00
2017-12-24T23:46:23.864Z,6.05
2017-12-24T23:48:50.237Z,5.99
2017-12-24T23:51:16.692Z,6.01
2017-12-24T23:53:43.077Z,5.88
2017-12-24T23:56:09.492Z,5.93
2017-12-24T23:58:35.865Z,5.96
